Time;durP1;ratioP1;P1;durP2;ratioP2;P2;SDS_P1;SDS_P2;PMS_P1;PMS_P2;Temp;Humidity;BMP_temperature;BMP_pressure;BME280_temperature;BME280_humidity;BME280_pressure;Samples;Min_cycle;Max_cycle;Signal;HPM_P1;HPM_P2
2022/04/18 00:01:38;;;;;;;2.10;1.55;;;14.40;79.20;;;;;;5035409;28;20212;-37
2022/04/18 00:04:07;;;;;;;2.17;1.33;;;14.40;79.20;;;;;;5033147;28;20267;-37
2022/04/18 00:06:36;;;;;;;2.38;1.25;;;14.40;79.20;;;;;;5032408;28;20204;-37
2022/04/18 00:09:04;;;;;;;2.30;1.30;;;14.30;79.10;;;;;;5029678;28;20277;-37
2022/04/18 00:11:33;;;;;;;2.37;1.77;;;14.30;79.10;;;;;;5045711;28;20212;-37
2022/04/18 00:14:05;;;;;;;2.07;1.60;;;14.30;79.10;;;;;;5030012;28;20254;-37
2022/04/18 00:16:33;;;;;;;2.20;1.47;;;14.20;78.90;;;;;;5038107;28;20196;-35
2022/04/18 00:19:00;;;;;;;2.23;1.50;;;14.10;78.90;;;;;;5037004;28;20607;-35
2022/04/18 00:21:31;;;;;;;1.93;1.40;;;14.10;78.90;;;;;;5035304;28;20204;-35
2022/04/18 00:23:58;;;;;;;2.67;1.67;;;14.00;78.80;;;;;;5043284;28;20242;-35
2022/04/18 00:26:25;;;;;;;2.10;1.57;;;14.00;78.80;;;;;;5030182;28;20229;-33
2022/04/18 00:28:55;;;;;;;2.07;1.40;;;14.00;78.90;;;;;;5033439;28;20232;-34
2022/04/18 00:31:25;;;;;;;2.93;1.50;;;13.90;78.80;;;;;;5031466;28;20197;-34
2022/04/18 00:33:52;;;;;;;3.17;1.50;;;13.90;78.80;;;;;;5029923;28;20571;-34
2022/04/18 00:36:19;;;;;;;2.92;1.30;;;13.80;78.70;;;;;;5029188;28;20648;-35
2022/04/18 00:38:49;;;;;;;2.07;1.70;;;13.80;78.80;;;;;;5030683;28;20201;-35
2022/04/18 00:41:16;;;;;;;2.30;1.50;;;13.70;78.70;;;;;;5042763;28;20782;-34
2022/04/18 00:43:47;;;;;;;2.67;1.60;;;13.60;78.60;;;;;;5028498;28;20229;-34
2022/04/18 00:46:18;;;;;;;1.77;1.50;;;13.60;78.70;;;;;;5031734;28;20196;-35
2022/04/18 00:48:50;;;;;;;4.03;1.70;;;13.50;78.60;;;;;;5036640;28;20651;-34
2022/04/18 00:51:21;;;;;;;1.70;1.50;;;13.50;78.60;;;;;;5047413;28;20563;-34
2022/04/18 00:53:55;;;;;;;1.60;1.50;;;13.40;78.60;;;;;;5037606;28;20686;-34
2022/04/18 00:56:28;;;;;;;1.73;1.35;;;13.30;78.50;;;;;;5048148;28;20235;-37
2022/04/18 00:58:58;;;;;;;2.40;1.40;;;13.30;78.50;;;;;;5041376;28;20201;-36
2022/04/18 01:01:32;;;;;;;2.38;1.80;;;13.30;78.40;;;;;;5048221;28;20687;-36
2022/04/18 01:04:00;;;;;;;4.22;1.55;;;13.20;78.30;;;;;;5045655;28;20208;-36
2022/04/18 01:06:27;;;;;;;1.50;1.40;;;13.20;78.30;;;;;;5048220;28;20291;-36
2022/04/18 01:08:57;;;;;;;2.93;1.53;;;13.10;78.10;;;;;;5036912;28;20749;-36
2022/04/18 01:11:27;;;;;;;2.50;1.40;;;13.20;78.20;;;;;;5043582;28;20729;-36
2022/04/18 01:14:01;;;;;;;1.75;1.60;;;13.10;78.10;;;;;;5044125;28;20216;-36
2022/04/18 01:16:31;;;;;;;2.13;1.40;;;13.10;78.20;;;;;;5043678;28;20210;-36
2022/04/18 01:19:01;;;;;;;1.63;1.20;;;13.00;78.00;;;;;;5032422;28;20851;-36
2022/04/18 01:21:28;;;;;;;2.13;1.47;;;13.00;78.00;;;;;;5047040;28;20745;-34
2022/04/18 01:23:59;;;;;;;2.80;1.47;;;13.00;78.00;;;;;;5047689;28;20215;-34
2022/04/18 01:29:15;;;;;;;2.30;1.70;;;13.00;78.00;;;;;;5032642;28;20817;-35
2022/04/18 01:31:42;;;;;;;2.00;1.70;;;12.90;78.00;;;;;;5044764;28;20558;-35
2022/04/18 01:34:12;;;;;;;2.00;1.70;;;12.90;78.00;;;;;;5048332;28;20632;-35
2022/04/18 01:36:42;;;;;;;2.53;1.67;;;12.90;78.00;;;;;;5028689;28;20201;-35
2022/04/18 01:39:09;;;;;;;2.33;1.40;;;12.80;78.00;;;;;;5029572;28;20230;-35
2022/04/18 01:41:38;;;;;;;2.90;1.47;;;12.80;77.90;;;;;;5037666;28;20201;-34
2022/04/18 01:44:10;;;;;;;3.27;1.60;;;12.80;77.90;;;;;;5031019;28;20622;-34
2022/04/18 01:46:37;;;;;;;2.07;1.27;;;12.70;77.90;;;;;;5035851;28;20205;-34
2022/04/18 01:49:05;;;;;;;2.47;1.43;;;12.70;77.80;;;;;;5040479;28;20224;-34
2022/04/18 01:51:35;;;;;;;2.20;1.40;;;12.60;77.80;;;;;;5031139;28;20636;-34
2022/04/18 01:54:04;;;;;;;1.53;1.40;;;12.60;77.80;;;;;;5044924;28;20212;-34
2022/04/18 01:56:34;;;;;;;2.10;1.90;;;12.60;77.80;;;;;;5032255;28;20224;-34
2022/04/18 01:59:01;;;;;;;3.43;1.60;;;12.50;77.70;;;;;;5033351;28;20212;-34
2022/04/18 02:01:31;;;;;;;3.53;1.60;;;12.50;77.70;;;;;;5043651;28;20261;-34
2022/04/18 02:04:00;;;;;;;2.10;1.67;;;12.50;77.70;;;;;;5028910;28;20289;-34
2022/04/18 02:06:28;;;;;;;2.43;1.60;;;12.40;77.60;;;;;;5042644;28;20212;-35
2022/04/18 02:08:56;;;;;;;2.80;1.90;;;12.40;77.60;;;;;;5033410;28;20236;-34
2022/04/18 02:11:25;;;;;;;3.10;1.60;;;12.40;77.70;;;;;;5033091;28;20663;-35
2022/04/18 02:13:53;;;;;;;2.17;1.60;;;12.30;77.70;;;;;;5026861;28;20205;-34
2022/04/18 02:16:24;;;;;;;2.27;1.90;;;12.30;77.70;;;;;;5044226;28;20204;-34
2022/04/18 02:18:54;;;;;;;3.13;1.90;;;12.30;77.70;;;;;;5031737;28;20248;-34
2022/04/18 02:21:23;;;;;;;2.90;1.90;;;12.30;77.70;;;;;;5046017;28;20226;-34
2022/04/18 02:23:50;;;;;;;4.40;1.90;;;12.30;77.80;;;;;;5046135;28;20211;-34
2022/04/18 02:26:22;;;;;;;2.07;1.57;;;12.30;77.80;;;;;;5044391;28;20324;-34
2022/04/18 02:28:53;;;;;;;3.10;1.80;;;12.30;77.70;;;;;;5029363;28;20229;-35
2022/04/18 02:31:20;;;;;;;3.50;2.40;;;12.20;77.60;;;;;;5026723;28;20205;-34
2022/04/18 02:33:47;;;;;;;2.50;1.60;;;12.20;77.70;;;;;;5028087;28;20196;-34
2022/04/18 02:36:14;;;;;;;3.07;1.80;;;12.20;77.80;;;;;;5028100;28;20738;-34
2022/04/18 02:38:46;;;;;;;3.10;1.90;;;12.10;77.70;;;;;;5035429;28;20615;-34
2022/04/18 02:41:13;;;;;;;1.80;1.70;;;12.10;77.70;;;;;;5046424;28;20625;-35
2022/04/18 02:43:40;;;;;;;2.80;2.00;;;12.00;77.60;;;;;;5041588;28;20275;-34
2022/04/18 02:46:11;;;;;;;1.70;1.57;;;12.00;77.60;;;;;;5043257;28;20729;-34
2022/04/18 02:48:44;;;;;;;2.80;1.90;;;12.00;77.70;;;;;;5047374;28;20225;-35
2022/04/18 02:51:18;;;;;;;1.87;1.67;;;12.00;77.80;;;;;;5026467;28;20201;-34
2022/04/18 02:53:45;;;;;;;3.10;2.00;;;11.90;77.80;;;;;;5025803;28;20259;-34
2022/04/18 02:56:12;;;;;;;2.80;1.97;;;11.90;77.90;;;;;;5044928;28;20644;-34
2022/04/18 02:58:39;;;;;;;3.03;2.40;;;11.90;78.00;;;;;;5026030;28;20200;-35
2022/04/18 03:01:09;;;;;;;2.57;1.70;;;11.80;78.00;;;;;;5035100;28;20201;-34
2022/04/18 03:03:40;;;;;;;2.80;1.80;;;11.80;78.00;;;;;;5042190;28;20193;-34
2022/04/18 03:06:10;;;;;;;2.30;1.87;;;11.70;77.90;;;;;;5040049;28;20295;-34
2022/04/18 03:08:37;;;;;;;2.60;2.00;;;11.70;77.90;;;;;;5031812;28;20241;-34
2022/04/18 03:11:07;;;;;;;3.50;2.23;;;11.60;77.80;;;;;;5026499;28;20201;-34
2022/04/18 03:13:43;;;;;;;3.17;2.20;;;11.60;77.90;;;;;;5028085;28;20251;-35
2022/04/18 03:16:14;;;;;;;5.77;2.27;;;11.50;77.80;;;;;;5039866;28;20254;-34
2022/04/18 03:18:43;;;;;;;2.13;1.90;;;11.50;77.90;;;;;;5030115;28;20311;-34
2022/04/18 03:21:12;;;;;;;3.57;2.20;;;11.50;77.80;;;;;;5040688;28;20201;-34
2022/04/18 03:23:44;;;;;;;2.70;2.00;;;11.40;77.70;;;;;;5037351;28;20603;-34
2022/04/18 03:26:18;;;;;;;3.43;2.00;;;11.40;77.70;;;;;;5050877;28;20497;-34
2022/04/18 03:28:50;;;;;;;2.83;1.97;;;11.40;77.90;;;;;;5029874;28;20307;-35
2022/04/18 03:31:20;;;;;;;2.80;2.20;;;11.40;78.00;;;;;;5034906;28;20562;-34
2022/04/18 03:33:47;;;;;;;2.20;1.80;;;11.30;78.00;;;;;;5046616;28;20193;-34
2022/04/18 03:41:51;;;;;;;2.67;2.03;;;11.20;77.90;;;;;;5035140;28;20240;-34
2022/04/18 03:44:18;;;;;;;3.10;2.20;;;11.20;77.90;;;;;;5041130;28;20543;-35
2022/04/18 03:46:45;;;;;;;2.77;2.10;;;11.10;77.90;;;;;;5036851;28;20226;-34
2022/04/18 03:49:14;;;;;;;3.90;2.37;;;11.10;78.10;;;;;;5064338;28;20314;-34
2022/04/18 03:51:42;;;;;;;3.60;2.37;;;11.10;78.10;;;;;;5044532;28;20208;-34
2022/04/18 03:54:11;;;;;;;2.77;2.17;;;11.10;78.10;;;;;;5043496;28;20306;-34
2022/04/18 03:56:41;;;;;;;2.67;2.00;;;11.10;78.20;;;;;;5045927;28;20329;-34
2022/04/18 03:59:08;;;;;;;2.83;2.00;;;11.00;78.20;;;;;;5042340;28;20664;-34
2022/04/18 04:01:38;;;;;;;3.30;2.10;;;11.00;78.30;;;;;;5035413;28;20213;-34
2022/04/18 04:04:05;;;;;;;2.40;1.97;;;11.00;78.50;;;;;;5031497;28;20573;-34
2022/04/18 04:06:32;;;;;;;3.53;2.37;;;10.90;78.40;;;;;;5032905;28;20610;-35
2022/04/18 04:09:04;;;;;;;3.63;2.30;;;10.90;78.50;;;;;;5037857;28;20703;-34
2022/04/18 04:11:32;;;;;;;2.40;2.20;;;10.80;78.40;;;;;;5037478;28;20269;-34
2022/04/18 04:13:59;;;;;;;3.43;2.27;;;10.80;78.40;;;;;;5043057;28;20211;-36
2022/04/18 04:16:29;;;;;;;3.00;2.33;;;10.80;78.50;;;;;;5032942;28;20208;-35
2022/04/18 04:18:59;;;;;;;9.17;2.83;;;10.70;78.50;;;;;;5029930;28;20215;-35
2022/04/18 04:21:29;;;;;;;5.27;2.87;;;10.70;78.50;;;;;;5040981;28;20220;-35
2022/04/18 04:23:58;;;;;;;3.93;3.07;;;10.60;78.30;;;;;;5030699;28;20275;-35
2022/04/18 04:26:25;;;;;;;4.77;2.40;;;10.60;78.40;;;;;;5037753;28;20679;-35
2022/04/18 04:28:55;;;;;;;3.40;2.10;;;10.60;78.50;;;;;;5029995;28;20228;-35
2022/04/18 04:31:27;;;;;;;3.37;2.53;;;10.50;79.00;;;;;;5032309;28;20217;-36
2022/04/18 04:33:54;;;;;;;3.07;2.60;;;10.50;78.30;;;;;;5028321;28;20683;-35
2022/04/18 04:36:21;;;;;;;3.17;2.20;;;10.50;78.40;;;;;;5043860;28;20447;-35
2022/04/18 04:38:49;;;;;;;3.60;2.60;;;10.50;78.30;;;;;;5033273;28;21093;-35
2022/04/18 04:41:16;;;;;;;3.70;2.60;;;10.50;78.50;;;;;;5044259;28;20304;-36
2022/04/18 04:43:45;;;;;;;5.70;2.73;;;10.50;78.70;;;;;;5043671;28;20292;-35
2022/04/18 04:46:13;;;;;;;4.27;2.37;;;10.50;78.80;;;;;;5049335;28;20211;-36
2022/04/18 04:48:40;;;;;;;7.27;2.67;;;10.40;78.60;;;;;;5059013;28;20231;-36
2022/04/18 04:51:07;;;;;;;3.30;2.43;;;10.40;78.60;;;;;;5069576;28;20234;-36
2022/04/18 04:53:35;;;;;;;3.63;2.70;;;10.40;78.70;;;;;;5042762;28;20236;-36
2022/04/18 04:56:02;;;;;;;4.33;2.70;;;10.40;78.80;;;;;;5031179;28;20316;-34
2022/04/18 04:58:32;;;;;;;4.37;2.53;;;10.40;78.90;;;;;;5034798;28;20805;-34
2022/04/18 05:00:59;;;;;;;2.70;2.30;;;10.40;78.90;;;;;;5044068;28;20693;-35
2022/04/18 05:03:26;;;;;;;4.37;2.57;;;10.40;78.90;;;;;;5047972;28;20216;-35
2022/04/18 05:05:56;;;;;;;5.80;2.47;;;10.40;79.10;;;;;;5047238;28;20239;-35
2022/04/18 05:08:23;;;;;;;3.67;2.43;;;10.40;79.10;;;;;;5046390;28;20236;-34
2022/04/18 05:10:59;;;;;;;4.50;2.60;;;10.40;79.20;;;;;;5038890;28;20545;-35
2022/04/18 05:13:27;;;;;;;5.50;2.73;;;10.40;79.30;;;;;;5046947;28;20207;-34
2022/04/18 05:15:57;;;;;;;3.97;2.70;;;10.40;79.20;;;;;;5043895;28;20761;-34
2022/04/18 05:18:24;;;;;;;3.43;2.40;;;10.40;79.40;;;;;;5044242;28;20204;-35
2022/04/18 05:20:51;;;;;;;3.60;2.70;;;10.40;79.50;;;;;;5032677;28;20239;-35
2022/04/18 05:23:20;;;;;;;4.67;2.60;;;10.40;79.50;;;;;;5048083;28;20219;-34
2022/04/18 05:25:47;;;;;;;3.10;2.60;;;10.40;79.60;;;;;;5033908;28;20208;-34
2022/04/18 05:28:14;;;;;;;4.67;2.73;;;10.40;79.60;;;;;;5031609;28;20286;-35
2022/04/18 05:30:42;;;;;;;4.20;2.60;;;10.40;79.60;;;;;;5031980;28;20450;-34
2022/04/18 05:33:09;;;;;;;3.87;2.70;;;10.40;79.70;;;;;;5033104;28;20209;-34
2022/04/18 05:35:37;;;;;;;4.00;2.97;;;10.40;79.80;;;;;;5035785;28;20719;-34
2022/04/18 05:38:04;;;;;;;5.53;2.60;;;10.40;79.80;;;;;;5029130;28;20220;-34
2022/04/18 05:40:31;;;;;;;4.40;2.37;;;10.40;80.00;;;;;;5029745;28;20204;-35
2022/04/18 05:43:02;;;;;;;3.67;2.70;;;10.40;80.00;;;;;;5031821;28;20217;-34
2022/04/18 05:45:29;;;;;;;3.77;2.80;;;10.40;80.10;;;;;;5039113;28;20308;-35
2022/04/18 05:47:57;;;;;;;3.03;2.70;;;10.50;80.10;;;;;;5032184;28;20266;-34
2022/04/18 05:50:29;;;;;;;3.60;2.40;;;10.50;80.10;;;;;;5027890;28;20592;-35
2022/04/18 05:52:56;;;;;;;3.60;2.50;;;10.50;80.10;;;;;;5031987;28;20202;-35
2022/04/18 05:55:26;;;;;;;5.37;2.47;;;10.50;80.00;;;;;;5029292;28;20268;-34
2022/04/18 05:57:53;;;;;;;5.17;2.77;;;10.60;80.20;;;;;;5033565;28;20254;-35
2022/04/18 06:00:21;;;;;;;4.87;2.37;;;10.60;80.20;;;;;;5041762;28;20212;-36
2022/04/18 06:02:48;;;;;;;4.70;2.50;;;10.60;80.10;;;;;;5033218;28;20208;-36
2022/04/18 06:05:15;;;;;;;3.67;2.60;;;10.70;80.20;;;;;;5044764;28;20735;-35
2022/04/18 06:07:45;;;;;;;3.90;2.43;;;10.70;80.30;;;;;;5039400;28;20215;-35
2022/04/18 06:10:14;;;;;;;4.30;2.63;;;10.80;80.30;;;;;;5027752;28;20319;-36
2022/04/18 06:12:42;;;;;;;5.17;2.43;;;10.80;80.10;;;;;;5032831;28;20299;-36
2022/04/18 06:15:09;;;;;;;3.50;2.10;;;10.90;80.20;;;;;;5038685;28;20296;-36
2022/04/18 06:17:36;;;;;;;3.33;2.20;;;11.00;80.40;;;;;;5033164;28;20212;-36
2022/04/18 06:20:07;;;;;;;2.80;2.07;;;11.10;80.50;;;;;;5028455;28;20571;-35
2022/04/18 06:22:36;;;;;;;2.43;2.20;;;11.10;80.30;;;;;;5031181;28;20758;-36
2022/04/18 06:25:04;;;;;;;4.30;2.40;;;11.20;80.50;;;;;;5040049;28;20854;-36
2022/04/18 06:27:32;;;;;;;2.77;2.23;;;11.30;80.60;;;;;;5039591;28;20224;-35
2022/04/18 06:30:01;;;;;;;3.10;1.90;;;11.40;80.70;;;;;;5045603;28;20308;-36
2022/04/18 06:32:35;;;;;;;2.00;1.80;;;11.40;80.80;;;;;;5029743;28;20209;-35
2022/04/18 06:35:08;;;;;;;2.53;1.60;;;11.50;80.90;;;;;;5031998;28;20359;-35
2022/04/18 06:37:35;;;;;;;4.03;2.10;;;11.60;81.00;;;;;;5026801;28;20209;-35
2022/04/18 06:40:03;;;;;;;2.67;2.17;;;11.70;81.10;;;;;;5027601;28;20203;-34
2022/04/18 06:42:36;;;;;;;2.70;2.17;;;11.70;81.10;;;;;;5029451;28;20220;-36
2022/04/18 06:45:04;;;;;;;3.90;2.13;;;11.80;81.40;;;;;;5028168;28;20754;-35
2022/04/18 06:47:31;;;;;;;2.90;2.20;;;11.90;81.40;;;;;;5040839;28;20205;-35
2022/04/18 06:49:59;;;;;;;3.57;2.53;;;11.90;81.40;;;;;;5066552;28;20253;-36
2022/04/18 06:52:26;;;;;;;3.67;2.43;;;11.90;81.40;;;;;;5067619;28;20215;-36
2022/04/18 06:54:55;;;;;;;2.53;2.13;;;12.00;81.60;;;;;;5039598;28;20240;-36
2022/04/18 06:57:23;;;;;;;2.57;2.30;;;12.00;81.60;;;;;;5033171;28;20197;-36
2022/04/18 06:59:55;;;;;;;3.47;2.20;;;12.10;81.70;;;;;;5027345;28;20223;-36
2022/04/18 07:02:24;;;;;;;3.47;2.40;;;12.20;81.80;;;;;;5027644;28;20649;-36
2022/04/18 07:04:54;;;;;;;4.40;2.33;;;12.20;81.80;;;;;;5026937;28;20228;-36
2022/04/18 07:07:22;;;;;;;2.90;2.30;;;12.30;82.00;;;;;;5026865;28;20204;-36
2022/04/18 07:09:51;;;;;;;2.50;2.13;;;12.40;82.20;;;;;;5027262;28;20264;-36
2022/04/18 07:12:23;;;;;;;3.17;2.03;;;12.40;82.20;;;;;;5027958;28;20205;-36
2022/04/18 07:14:55;;;;;;;2.20;2.00;;;12.50;82.30;;;;;;5025816;28;20200;-37
2022/04/18 07:17:24;;;;;;;3.23;2.17;;;12.50;82.30;;;;;;5027610;28;20259;-36
2022/04/18 07:19:51;;;;;;;2.27;2.07;;;12.60;82.50;;;;;;5026452;28;20212;-36
2022/04/18 07:22:18;;;;;;;3.95;2.33;;;12.70;82.60;;;;;;5027223;28;20205;-36
2022/04/18 07:24:49;;;;;;;2.33;1.90;;;12.80;82.70;;;;;;5033707;28;20614;-37
2022/04/18 07:27:16;;;;;;;3.70;2.13;;;12.90;82.90;;;;;;5025279;28;20282;-37
2022/04/18 07:29:43;;;;;;;2.90;1.70;;;12.90;82.90;;;;;;5028789;28;20228;-37
2022/04/18 07:32:12;;;;;;;2.47;1.50;;;13.00;83.10;;;;;;5024335;28;20197;-37
2022/04/18 07:34:39;;;;;;;3.10;1.80;;;13.10;83.20;;;;;;5024321;28;20200;-36
2022/04/18 07:37:07;;;;;;;3.10;1.80;;;13.20;83.40;;;;;;5038668;28;20241;-37
2022/04/18 07:39:34;;;;;;;2.67;1.80;;;13.30;83.50;;;;;;5044835;28;20616;-36
2022/04/18 07:42:01;;;;;;;2.90;1.73;;;13.40;83.70;;;;;;5045097;28;20211;-37
2022/04/18 07:44:31;;;;;;;3.33;1.77;;;13.50;83.80;;;;;;5027682;28;20216;-35
2022/04/18 07:46:58;;;;;;;2.55;1.40;;;13.60;84.00;;;;;;5033039;28;20308;-36
2022/04/18 07:49:28;;;;;;;1.95;1.48;;;13.70;84.70;;;;;;5039791;28;21114;-37
2022/04/18 07:52:04;;;;;;;1.53;1.30;;;13.80;84.20;;;;;;5043126;28;20295;-37
2022/04/18 07:54:38;;;;;;;1.77;1.20;;;13.90;84.20;;;;;;5045395;28;20232;-37
2022/04/18 07:57:06;;;;;;;1.77;1.40;;;14.00;84.40;;;;;;5030122;28;20716;-37
2022/04/18 07:59:33;;;;;;;1.33;1.00;;;14.10;84.50;;;;;;5033572;28;20554;-37
2022/04/18 08:02:08;;;;;;;1.45;1.20;;;14.20;84.60;;;;;;5025306;28;20211;-36
2022/04/18 08:04:40;;;;;;;1.42;1.20;;;14.30;84.80;;;;;;5026140;28;20219;-37
2022/04/18 08:07:08;;;;;;;2.67;1.70;;;14.40;84.90;;;;;;5032595;28;20208;-37
2022/04/18 08:09:35;;;;;;;1.60;1.20;;;14.50;85.00;;;;;;5032442;28;20225;-37
2022/04/18 08:12:04;;;;;;;2.17;1.40;;;14.60;85.10;;;;;;5034035;28;20303;-36
2022/04/18 08:14:33;;;;;;;2.28;1.58;;;14.70;85.20;;;;;;5048093;28;20280;-36
2022/04/18 08:17:00;;;;;;;3.97;1.40;;;14.80;85.40;;;;;;5030269;28;20308;-36
2022/04/18 08:19:31;;;;;;;1.38;1.27;;;14.80;85.30;;;;;;5032573;28;20232;-36
2022/04/18 08:22:03;;;;;;;2.20;1.50;;;14.90;85.50;;;;;;5034898;28;20685;-37
2022/04/18 08:24:35;;;;;;;2.70;2.13;;;15.10;85.70;;;;;;5038509;28;20299;-36
2022/04/18 08:27:06;;;;;;;1.95;1.65;;;15.10;85.80;;;;;;5043613;28;20304;-36
2022/04/18 08:29:33;;;;;;;2.53;1.92;;;15.20;85.90;;;;;;5036633;28;20679;-36
2022/04/18 08:32:05;;;;;;;4.55;2.10;;;15.30;86.00;;;;;;5048683;28;20232;-36
2022/04/18 08:34:40;;;;;;;2.60;1.60;;;15.40;86.20;;;;;;5046236;28;20269;-36
2022/04/18 08:37:07;;;;;;;2.33;1.67;;;15.50;86.20;;;;;;5044788;28;20235;-36
2022/04/18 08:39:35;;;;;;;2.83;1.90;;;15.60;86.30;;;;;;5039044;28;20313;-36
2022/04/18 08:42:05;;;;;;;1.38;1.27;;;15.60;86.40;;;;;;5037398;28;20204;-36
2022/04/18 08:44:34;;;;;;;2.00;1.50;;;15.80;86.70;;;;;;5026732;28;20205;-36
2022/04/18 08:47:04;;;;;;;2.17;1.77;;;15.80;86.70;;;;;;5028329;28;20252;-35
2022/04/18 08:55:11;;;;;;;2.25;1.80;;;16.10;87.10;;;;;;5034075;28;20714;-39
2022/04/18 08:57:39;;;;;;;3.78;1.90;;;16.20;87.10;;;;;;5028691;28;20291;-36
2022/04/18 09:00:08;;;;;;;2.63;1.80;;;16.30;87.30;;;;;;5028221;28;20896;-36
2022/04/18 09:02:37;;;;;;;2.08;1.75;;;16.30;87.30;;;;;;5026730;28;20312;-45
2022/04/18 09:05:10;;;;;;;4.13;1.90;;;16.40;87.40;;;;;;5031680;28;20762;-44
2022/04/18 09:07:44;;;;;;;1.63;1.52;;;16.50;87.60;;;;;;5037866;28;20278;-44
2022/04/18 09:10:22;;;;;;;2.15;1.67;;;16.60;87.70;;;;;;5040603;28;20518;-48
2022/04/18 09:12:50;;;;;;;2.70;1.95;;;16.70;87.70;;;;;;5041407;28;20724;-44
2022/04/18 09:15:41;;;;;;;2.50;1.90;;;16.70;87.70;;;;;;5029943;28;20217;-49
2022/04/18 09:18:20;;;;;;;3.15;2.05;;;16.80;87.70;;;;;;5032738;28;20212;-46
2022/04/18 09:20:55;;;;;;;2.15;1.95;;;16.80;87.70;;;;;;5034411;28;20303;-46
2022/04/18 09:23:34;;;;;;;2.03;1.63;;;16.90;87.90;;;;;;5038549;28;20298;-48
2022/04/18 09:26:08;;;;;;;2.67;1.90;;;16.90;87.90;;;;;;5026402;28;20292;-46
2022/04/18 09:28:42;;;;;;;2.28;1.90;;;17.00;88.00;;;;;;5030658;28;20307;-46
2022/04/18 09:31:19;;;;;;;3.72;2.00;;;17.00;88.00;;;;;;5033328;28;20212;-48
2022/04/18 09:33:56;;;;;;;4.00;2.00;;;17.10;88.10;;;;;;5032695;28;20219;-48
2022/04/18 09:36:26;;;;;;;3.90;2.08;;;17.10;87.90;;;;;;5025995;28;20250;-47
2022/04/18 09:38:56;;;;;;;1.73;1.63;;;17.20;88.10;;;;;;5027551;28;20331;-47
2022/04/18 09:41:26;;;;;;;2.83;1.70;;;17.30;88.20;;;;;;5038189;28;20319;-50
2022/04/18 09:43:59;;;;;;;1.77;1.67;;;17.30;88.20;;;;;;5025861;28;20228;-47
2022/04/18 09:46:26;;;;;;;2.35;1.73;;;17.40;88.30;;;;;;5030594;28;20204;-48
2022/04/18 09:49:04;;;;;;;2.72;1.95;;;17.40;88.30;;;;;;5044778;28;20207;-46
2022/04/18 09:51:37;;;;;;;2.30;1.80;;;17.50;88.30;;;;;;5046530;28;20815;-46
2022/04/18 09:54:07;;;;;;;3.55;2.20;;;17.60;88.40;;;;;;5025895;28;20216;-47
2022/04/18 09:56:46;;;;;;;2.53;1.90;;;17.60;88.30;;;;;;5025199;28;20737;-46
2022/04/18 09:59:18;;;;;;;2.72;1.77;;;17.70;89.00;;;;;;5044669;28;20223;-47
2022/04/18 10:01:46;;;;;;;2.92;2.28;;;17.70;88.50;;;;;;5038480;28;20307;-46
2022/04/18 10:04:16;;;;;;;4.13;2.55;;;17.80;88.40;;;;;;5045786;28;20670;-47
2022/04/18 10:06:50;;;;;;;2.90;2.30;;;17.80;88.30;;;;;;5037600;28;20564;-48
2022/04/18 10:09:18;;;;;;;3.83;2.30;;;17.90;88.40;;;;;;5037587;28;20203;-47
2022/04/18 10:11:50;;;;;;;4.43;2.20;;;17.90;88.40;;;;;;5044975;28;20852;-48
2022/04/18 10:14:19;;;;;;;2.58;2.03;;;18.00;88.60;;;;;;5036998;28;20327;-47
2022/04/18 10:16:47;;;;;;;2.33;1.70;;;18.00;88.70;;;;;;5046386;28;20295;-47
2022/04/18 10:19:56;;;;;;;2.50;1.95;;;18.00;88.60;;;;;;5044226;28;20424;-46
2022/04/18 10:22:29;;;;;;;2.30;1.95;;;18.10;88.50;;;;;;5035737;28;20240;-47
2022/04/18 10:25:25;;;;;;;2.70;2.10;;;18.10;88.50;;;;;;5028990;28;20204;-50
2022/04/18 10:28:06;;;;;;;5.35;2.10;;;18.20;88.60;;;;;;5042502;28;20207;-46
2022/04/18 10:30:59;;;;;;;3.03;2.08;;;18.20;87.30;;;;;;5036754;28;20278;-49
2022/04/18 10:33:30;;;;;;;2.65;1.98;;;18.30;88.30;;;;;;5028236;28;20536;-48
2022/04/18 10:36:03;;;;;;;2.90;2.00;;;18.30;88.50;;;;;;5035283;28;20212;-47
2022/04/18 10:38:37;;;;;;;2.97;2.20;;;18.30;88.50;;;;;;5045933;28;20215;-47
2022/04/18 10:41:16;;;;;;;3.38;2.10;;;18.40;88.30;;;;;;5027814;28;20236;-48
2022/04/18 10:44:09;;;;;;;2.08;1.88;;;18.40;88.20;;;;;;5027485;28;20208;-47
2022/04/18 10:47:03;;;;;;;1.52;1.42;;;18.40;88.00;;;;;;5030793;28;20381;-45
2022/04/18 10:49:35;;;;;;;2.35;1.70;;;18.50;87.40;;;;;;5043139;28;20220;-47
2022/04/18 10:52:11;;;;;;;2.15;1.80;;;18.40;87.90;;;;;;5030732;28;20212;-48
2022/04/18 10:54:39;;;;;;;2.72;1.73;;;18.50;87.00;;;;;;5039224;28;20235;-47
2022/04/18 10:57:12;;;;;;;2.65;1.58;;;18.50;87.50;;;;;;5045611;28;20196;-48
2022/04/18 10:59:42;;;;;;;3.58;1.90;;;18.50;87.70;;;;;;5044316;28;20612;-49
2022/04/18 11:02:39;;;;;;;1.85;1.60;;;18.50;87.60;;;;;;5039295;28;20288;-48
2022/04/18 11:05:07;;;;;;;1.85;1.40;;;18.50;87.50;;;;;;5026193;28;20212;-48
2022/04/18 11:07:41;;;;;;;1.90;1.38;;;18.50;87.70;;;;;;5025940;28;20296;-49
2022/04/18 11:10:19;;;;;;;2.28;1.60;;;18.60;87.70;;;;;;5035055;28;20633;-49
2022/04/18 11:12:46;;;;;;;1.63;1.52;;;18.60;86.60;;;;;;5045671;28;20195;-49
2022/04/18 11:15:17;;;;;;;1.88;1.27;;;18.60;87.30;;;;;;5043330;28;20690;-50
2022/04/18 11:17:46;;;;;;;1.45;1.35;;;18.60;87.10;;;;;;5043122;28;20617;-48
2022/04/18 11:20:35;;;;;;;2.95;1.70;;;18.60;87.40;;;;;;5046004;28;20246;-49
2022/04/18 11:23:30;;;;;;;2.47;1.30;;;18.70;87.10;;;;;;5044257;28;20200;-49
2022/04/18 11:26:07;;;;;;;1.40;1.30;;;18.70;87.30;;;;;;5045057;28;20298;-48
2022/04/18 11:28:39;;;;;;;1.52;1.30;;;18.70;86.90;;;;;;5045174;28;20285;-49
2022/04/18 11:31:29;;;;;;;1.85;1.50;;;18.70;86.90;;;;;;5036460;28;20571;-48
2022/04/18 11:34:01;;;;;;;1.65;1.42;;;18.70;86.80;;;;;;5025396;28;20209;-47
2022/04/18 11:36:31;;;;;;;1.52;1.30;;;18.70;86.80;;;;;;5040709;28;20220;-48
2022/04/18 11:39:07;;;;;;;1.60;1.50;;;18.70;86.40;;;;;;5036027;28;20697;-48
2022/04/18 11:41:35;;;;;;;3.53;1.55;;;18.70;83.50;;;;;;5038862;28;20195;-48
2022/04/18 11:44:05;;;;;;;1.67;1.05;;;18.70;85.10;;;;;;5042820;28;20328;-48
2022/04/18 11:46:34;;;;;;;2.10;1.35;;;18.70;85.50;;;;;;5045944;28;20204;-48
2022/04/18 11:49:04;;;;;;;1.13;1.02;;;18.70;86.20;;;;;;5049743;28;20226;-48
2022/04/18 11:51:42;;;;;;;2.47;1.50;;;18.70;85.70;;;;;;5047458;28;20698;-49
2022/04/18 11:54:14;;;;;;;2.03;1.50;;;18.70;84.40;;;;;;5049138;28;20661;-49
2022/04/18 11:56:58;;;;;;;1.67;1.25;;;18.60;84.90;;;;;;5041112;28;20686;-47
2022/04/18 11:59:27;;;;;;;1.67;1.58;;;18.70;85.20;;;;;;5030410;28;20293;-48
2022/04/18 12:07:38;;;;;;;2.13;1.50;;;18.70;84.90;;;;;;5029169;28;20189;-33
2022/04/18 12:10:28;;;;;;;1.48;1.38;;;18.80;85.40;;;;;;5038821;28;20714;-34
2022/04/18 12:13:02;;;;;;;1.70;1.40;;;18.80;84.70;;;;;;5026269;28;20270;-33
2022/04/18 12:15:33;;;;;;;2.30;1.60;;;18.80;85.20;;;;;;5028873;28;20675;-34
2022/04/18 12:18:15;;;;;;;1.52;1.42;;;18.90;85.40;;;;;;5031232;28;20221;-33
2022/04/18 12:20:45;;;;;;;1.15;1.13;;;18.90;85.20;;;;;;5029133;28;20211;-33
2022/04/18 12:23:24;;;;;;;1.15;1.08;;;18.90;85.40;;;;;;5028545;28;20209;-34
2022/04/18 12:25:55;;;;;;;1.13;1.02;;;19.00;85.50;;;;;;5029041;28;20223;-33
2022/04/18 12:28:29;;;;;;;1.48;1.20;;;19.00;84.60;;;;;;5029173;28;20727;-34
2022/04/18 12:30:59;;;;;;;1.50;1.10;;;19.10;84.80;;;;;;5028429;28;20264;-34
2022/04/18 12:33:30;;;;;;;1.30;1.20;;;19.10;85.80;;;;;;5026909;28;20203;-33
2022/04/18 12:35:59;;;;;;;1.33;1.20;;;19.10;84.70;;;;;;5038411;28;20217;-34
2022/04/18 12:38:31;;;;;;;1.67;1.20;;;19.20;84.60;;;;;;5017786;28;20193;-33
2022/04/18 12:40:59;;;;;;;1.83;1.50;;;19.20;84.80;;;;;;5028155;28;20240;-33
2022/04/18 12:43:33;;;;;;;1.92;1.42;;;19.30;85.10;;;;;;5028611;28;20602;-33
2022/04/18 12:46:05;;;;;;;2.78;2.17;;;19.30;85.20;;;;;;5028146;28;20295;-33
2022/04/18 12:48:34;;;;;;;3.00;2.70;;;19.40;84.80;;;;;;5048714;28;20719;-35
2022/04/18 12:51:09;;;;;;;2.72;2.47;;;19.40;84.10;;;;;;5067960;28;20702;-36
2022/04/18 12:53:55;;;;;;;2.70;2.40;;;19.40;84.60;;;;;;5027994;28;20209;-34
2022/04/18 12:56:24;;;;;;;4.72;2.03;;;19.50;84.80;;;;;;5031751;28;20343;-33
2022/04/18 12:58:56;;;;;;;2.72;2.30;;;19.50;85.20;;;;;;5047527;28;20231;-33
2022/04/18 13:01:26;;;;;;;3.28;2.28;;;19.50;84.80;;;;;;5045240;28;20216;-34
2022/04/18 13:03:57;;;;;;;2.55;1.80;;;19.60;83.90;;;;;;5047926;28;20211;-33
2022/04/18 13:06:28;;;;;;;5.47;2.70;;;19.60;85.00;;;;;;5046068;28;20686;-34
2022/04/18 13:09:07;;;;;;;2.70;2.05;;;19.60;85.00;;;;;;5042896;28;20201;-33
2022/04/18 13:11:45;;;;;;;2.83;2.20;;;19.60;84.90;;;;;;5026780;28;20234;-33
2022/04/18 13:14:15;;;;;;;4.90;2.10;;;19.70;85.20;;;;;;5027832;28;20225;-33
2022/04/18 13:16:45;;;;;;;1.70;1.60;;;19.70;85.50;;;;;;5025668;28;20663;-33
2022/04/18 13:19:17;;;;;;;2.35;1.70;;;19.70;85.50;;;;;;5026927;28;20240;-33
2022/04/18 13:21:51;;;;;;;2.00;1.52;;;19.80;85.70;;;;;;5023840;28;20643;-32
2022/04/18 13:24:18;;;;;;;1.48;1.38;;;19.90;85.60;;;;;;5026769;28;20254;-33
2022/04/18 13:26:47;;;;;;;1.50;1.40;;;19.90;85.90;;;;;;5039023;28;20638;-33